sensor_id;sensor_type;location;lat;lon;timestamp;pressure;altitude;pressure_sealevel;temperature;humidity
5755;BME280;2902;42.130;24.732;2023-05-22T00:00:04;99130.25;;;17.75;99.29
5755;BME280;2902;42.130;24.732;2023-05-22T00:02:32;99137.50;;;17.74;98.92
5755;BME280;2902;42.130;24.732;2023-05-22T00:05:03;99134.44;;;17.66;98.59
5755;BME280;2902;42.130;24.732;2023-05-22T00:07:32;99124.72;;;17.60;98.20
5755;BME280;2902;42.130;24.732;2023-05-22T00:09:59;99124.63;;;17.55;99.82
5755;BME280;2902;42.130;24.732;2023-05-22T00:12:25;99113.97;;;17.60;100.00
5755;BME280;2902;42.130;24.732;2023-05-22T00:14:52;99113.97;;;17.60;99.36
5755;BME280;2902;42.130;24.732;2023-05-22T00:17:19;99128.06;;;17.72;99.34
5755;BME280;2902;42.130;24.732;2023-05-22T00:19:45;99126.44;;;17.71;99.68
5755;BME280;2902;42.130;24.732;2023-05-22T00:22:12;99130.00;;;17.76;100.00
5755;BME280;2902;42.130;24.732;2023-05-22T00:24:40;99123.31;;;17.79;100.00
5755;BME280;2902;42.130;24.732;2023-05-22T00:27:07;99121.00;;;17.87;99.00
5755;BME280;2902;42.130;24.732;2023-05-22T00:29:33;99127.50;;;17.91;97.39
5755;BME280;2902;42.130;24.732;2023-05-22T00:32:00;99124.59;;;17.98;98.36
5755;BME280;2902;42.130;24.732;2023-05-22T00:34:27;99130.03;;;18.03;97.56
5755;BME280;2902;42.130;24.732;2023-05-22T00:36:54;99133.78;;;18.02;97.60
5755;BME280;2902;42.130;24.732;2023-05-22T00:39:20;99135.41;;;18.03;98.09
5755;BME280;2902;42.130;24.732;2023-05-22T00:41:48;99134.84;;;18.01;97.62
5755;BME280;2902;42.130;24.732;2023-05-22T00:44:15;99137.03;;;18.04;97.52
5755;BME280;2902;42.130;24.732;2023-05-22T00:46:42;99145.72;;;18.11;96.92
5755;BME280;2902;42.130;24.732;2023-05-22T00:49:08;99138.66;;;18.05;96.67
5755;BME280;2902;42.130;24.732;2023-05-22T00:51:35;99137.63;;;18.11;97.81
5755;BME280;2902;42.130;24.732;2023-05-22T00:54:03;99140.91;;;18.13;97.36
5755;BME280;2902;42.130;24.732;2023-05-22T00:56:30;99136.66;;;18.17;97.72
5755;BME280;2902;42.130;24.732;2023-05-22T00:58:58;99133.38;;;18.15;96.76
5755;BME280;2902;42.130;24.732;2023-05-22T01:01:25;99132.22;;;18.06;96.83
5755;BME280;2902;42.130;24.732;2023-05-22T01:03:58;99140.38;;;18.16;97.31
5755;BME280;2902;42.130;24.732;2023-05-22T01:06:26;99138.88;;;18.25;95.90
5755;BME280;2902;42.130;24.732;2023-05-22T01:08:53;99138.88;;;18.25;95.78
5755;BME280;2902;42.130;24.732;2023-05-22T01:11:23;99137.84;;;18.31;95.32
5755;BME280;2902;42.130;24.732;2023-05-22T01:13:55;99140.13;;;18.39;94.76
5755;BME280;2902;42.130;24.732;2023-05-22T01:16:33;99145.50;;;18.39;94.76
5755;BME280;2902;42.130;24.732;2023-05-22T01:19:10;99125.78;;;18.33;93.66
5755;BME280;2902;42.130;24.732;2023-05-22T01:21:46;99136.00;;;18.31;93.64
5755;BME280;2902;42.130;24.732;2023-05-22T01:24:50;99134.50;;;18.19;94.90
5755;BME280;2902;42.130;24.732;2023-05-22T01:27:44;99129.94;;;18.19;95.10
5755;BME280;2902;42.130;24.732;2023-05-22T01:33:17;99130.81;;;18.25;95.09
5755;BME280;2902;42.130;24.732;2023-05-22T01:35:48;99136.25;;;18.30;94.62
5755;BME280;2902;42.130;24.732;2023-05-22T01:38:18;99140.28;;;18.32;94.31
5755;BME280;2902;42.130;24.732;2023-05-22T01:40:46;99135.25;;;18.36;93.76
5755;BME280;2902;42.130;24.732;2023-05-22T01:43:14;99130.19;;;18.39;93.48
5755;BME280;2902;42.130;24.732;2023-05-22T01:45:41;99132.88;;;18.39;93.24
5755;BME280;2902;42.130;24.732;2023-05-22T01:48:07;99131.47;;;18.37;93.55
5755;BME280;2902;42.130;24.732;2023-05-22T01:50:35;99128.78;;;18.37;94.06
5755;BME280;2902;42.130;24.732;2023-05-22T01:53:09;99126.56;;;18.29;94.74
5755;BME280;2902;42.130;24.732;2023-05-22T01:55:41;99126.56;;;18.29;96.31
5755;BME280;2902;42.130;24.732;2023-05-22T01:58:15;99130.88;;;18.30;95.54
5755;BME280;2902;42.130;24.732;2023-05-22T02:00:46;99125.97;;;18.27;95.57
5755;BME280;2902;42.130;24.732;2023-05-22T02:03:18;99129.50;;;18.27;96.67
5755;BME280;2902;42.130;24.732;2023-05-22T02:05:50;99130.53;;;18.26;96.20
5755;BME280;2902;42.130;24.732;2023-05-22T02:08:19;99127.06;;;18.26;96.17
5755;BME280;2902;42.130;24.732;2023-05-22T02:10:47;99121.09;;;18.24;96.60
5755;BME280;2902;42.130;24.732;2023-05-22T02:13:14;99136.13;;;18.20;95.58
5755;BME280;2902;42.130;24.732;2023-05-22T02:15:43;99134.41;;;18.09;96.05
5755;BME280;2902;42.130;24.732;2023-05-22T02:18:10;99126.28;;;18.04;96.06
5755;BME280;2902;42.130;24.732;2023-05-22T02:20:38;99128.50;;;18.12;97.37
5755;BME280;2902;42.130;24.732;2023-05-22T02:23:06;99126.59;;;18.07;96.32
5755;BME280;2902;42.130;24.732;2023-05-22T02:25:32;99127.66;;;18.06;97.20
5755;BME280;2902;42.130;24.732;2023-05-22T02:27:59;99127.97;;;18.10;97.65
5755;BME280;2902;42.130;24.732;2023-05-22T02:30:26;99123.97;;;18.12;97.88
5755;BME280;2902;42.130;24.732;2023-05-22T02:32:54;99128.22;;;18.08;97.15
5755;BME280;2902;42.130;24.732;2023-05-22T02:35:21;99134.34;;;18.04;96.90
5755;BME280;2902;42.130;24.732;2023-05-22T02:37:48;99137.16;;;18.14;97.66
5755;BME280;2902;42.130;24.732;2023-05-22T02:40:16;99138.25;;;18.18;96.60
5755;BME280;2902;42.130;24.732;2023-05-22T02:42:43;99135.31;;;18.19;96.75
5755;BME280;2902;42.130;24.732;2023-05-22T02:45:10;99140.34;;;18.11;96.45
5755;BME280;2902;42.130;24.732;2023-05-22T02:47:37;99135.59;;;17.96;96.90
5755;BME280;2902;42.130;24.732;2023-05-22T02:50:04;99142.28;;;17.94;97.88
5755;BME280;2902;42.130;24.732;2023-05-22T02:52:31;99136.44;;;17.97;98.09
5755;BME280;2902;42.130;24.732;2023-05-22T02:54:58;99127.34;;;18.03;98.05
5755;BME280;2902;42.130;24.732;2023-05-22T02:57:26;99125.22;;;18.05;97.74
5755;BME280;2902;42.130;24.732;2023-05-22T02:59:52;99122.84;;;18.08;98.55
5755;BME280;2902;42.130;24.732;2023-05-22T03:02:19;99124.44;;;18.09;97.12
5755;BME280;2902;42.130;24.732;2023-05-22T03:04:46;99126.88;;;18.11;98.05
5755;BME280;2902;42.130;24.732;2023-05-22T03:07:12;99132.06;;;18.17;97.82
5755;BME280;2902;42.130;24.732;2023-05-22T03:09:39;99130.75;;;18.20;97.39
5755;BME280;2902;42.130;24.732;2023-05-22T03:12:06;99131.84;;;18.24;97.00
5755;BME280;2902;42.130;24.732;2023-05-22T03:14:35;99132.19;;;18.27;96.74
5755;BME280;2902;42.130;24.732;2023-05-22T03:17:02;99131.84;;;18.24;96.15
5755;BME280;2902;42.130;24.732;2023-05-22T03:19:29;99131.56;;;18.20;96.52
5755;BME280;2902;42.130;24.732;2023-05-22T03:21:55;99135.06;;;18.21;96.60
5755;BME280;2902;42.130;24.732;2023-05-22T03:24:22;99135.56;;;18.18;95.77
5755;BME280;2902;42.130;24.732;2023-05-22T03:26:49;99136.56;;;18.12;96.18
5755;BME280;2902;42.130;24.732;2023-05-22T03:29:15;99137.44;;;18.17;97.58
5755;BME280;2902;42.130;24.732;2023-05-22T03:31:43;99130.75;;;18.20;97.32
5755;BME280;2902;42.130;24.732;2023-05-22T03:34:10;99133.50;;;18.25;97.68
5755;BME280;2902;42.130;24.732;2023-05-22T03:36:37;99139.94;;;18.24;96.82
5755;BME280;2902;42.130;24.732;2023-05-22T03:39:04;99135.41;;;18.29;96.79
5755;BME280;2902;42.130;24.732;2023-05-22T03:41:31;99143.22;;;18.31;95.88
5755;BME280;2902;42.130;24.732;2023-05-22T03:43:58;99136.84;;;18.37;95.56
5755;BME280;2902;42.130;24.732;2023-05-22T03:46:24;99137.94;;;18.36;95.30
5755;BME280;2902;42.130;24.732;2023-05-22T03:48:53;99137.97;;;18.41;96.10
5755;BME280;2902;42.130;24.732;2023-05-22T03:51:19;99136.97;;;18.47;95.63
5755;BME280;2902;42.130;24.732;2023-05-22T03:53:46;99146.09;;;18.46;95.36
5755;BME280;2902;42.130;24.732;2023-05-22T03:56:13;99138.78;;;18.41;95.48
5755;BME280;2902;42.130;24.732;2023-05-22T03:58:39;99140.41;;;18.42;95.12
5755;BME280;2902;42.130;24.732;2023-05-22T04:01:06;99122.44;;;18.48;95.44
5755;BME280;2902;42.130;24.732;2023-05-22T04:03:34;99148.19;;;18.70;91.74
5755;BME280;2902;42.130;24.732;2023-05-22T04:06:02;99148.91;;;18.61;90.57
5755;BME280;2902;42.130;24.732;2023-05-22T04:08:29;99149.78;;;18.66;91.90
5755;BME280;2902;42.130;24.732;2023-05-22T04:10:56;99150.09;;;18.70;90.99
5755;BME280;2902;42.130;24.732;2023-05-22T04:13:23;99146.59;;;18.69;90.91
5755;BME280;2902;42.130;24.732;2023-05-22T04:15:50;99152.19;;;18.63;90.48
5755;BME280;2902;42.130;24.732;2023-05-22T04:18:17;99154.28;;;18.61;90.34
5755;BME280;2902;42.130;24.732;2023-05-22T04:20:44;99155.41;;;18.65;90.40
5755;BME280;2902;42.130;24.732;2023-05-22T04:23:12;99151.75;;;18.76;90.31
5755;BME280;2902;42.130;24.732;2023-05-22T04:25:39;99146.94;;;18.78;89.44
5755;BME280;2902;42.130;24.732;2023-05-22T04:28:05;99143.06;;;18.69;89.17
5755;BME280;2902;42.130;24.732;2023-05-22T04:30:33;99154.63;;;18.64;89.22
5755;BME280;2902;42.130;24.732;2023-05-22T04:33:01;99148.66;;;18.62;89.47
5755;BME280;2902;42.130;24.732;2023-05-22T04:35:29;99150.34;;;18.68;90.53
5755;BME280;2902;42.130;24.732;2023-05-22T04:37:57;99152.78;;;18.70;89.64
5755;BME280;2902;42.130;24.732;2023-05-22T04:40:27;99160.56;;;18.71;89.26
5755;BME280;2902;42.130;24.732;2023-05-22T04:42:57;99164.34;;;18.70;88.76
5755;BME280;2902;42.130;24.732;2023-05-22T04:45:25;99162.22;;;18.72;90.82
5755;BME280;2902;42.130;24.732;2023-05-22T04:47:53;99159.16;;;18.95;90.89
5755;BME280;2902;42.130;24.732;2023-05-22T04:50:20;99162.16;;;18.99;86.01
5755;BME280;2902;42.130;24.732;2023-05-22T04:52:48;99165.91;;;18.98;86.49
5755;BME280;2902;42.130;24.732;2023-05-22T04:55:14;99166.47;;;19.00;86.45
5755;BME280;2902;42.130;24.732;2023-05-22T04:57:42;99160.91;;;19.11;85.63
5755;BME280;2902;42.130;24.732;2023-05-22T05:00:10;99169.00;;;19.53;84.17
5755;BME280;2902;42.130;24.732;2023-05-22T05:02:38;99178.53;;;20.42;80.34
5755;BME280;2902;42.130;24.732;2023-05-22T05:05:05;99183.97;;;20.82;77.74
5755;BME280;2902;42.130;24.732;2023-05-22T05:07:35;99180.72;;;20.60;77.81
5755;BME280;2902;42.130;24.732;2023-05-22T05:10:03;99175.22;;;20.20;79.02
5755;BME280;2902;42.130;24.732;2023-05-22T05:12:29;99168.03;;;19.79;80.77
5755;BME280;2902;42.130;24.732;2023-05-22T05:14:57;99172.28;;;19.60;81.61
5755;BME280;2902;42.130;24.732;2023-05-22T05:17:24;99157.16;;;19.59;84.24
5755;BME280;2902;42.130;24.732;2023-05-22T05:19:51;99165.31;;;19.64;83.83
5755;BME280;2902;42.130;24.732;2023-05-22T05:22:17;99161.56;;;19.80;85.30
5755;BME280;2902;42.130;24.732;2023-05-22T05:24:44;99160.88;;;20.04;85.22
5755;BME280;2902;42.130;24.732;2023-05-22T05:27:11;99171.72;;;20.14;81.28
5755;BME280;2902;42.130;24.732;2023-05-22T05:29:38;99177.31;;;20.08;80.97
5755;BME280;2902;42.130;24.732;2023-05-22T05:32:07;99178.97;;;20.09;81.83
5755;BME280;2902;42.130;24.732;2023-05-22T05:34:34;99173.66;;;20.34;82.86
5755;BME280;2902;42.130;24.732;2023-05-22T05:37:01;99164.78;;;20.53;82.73
5755;BME280;2902;42.130;24.732;2023-05-22T05:39:28;99184.00;;;20.87;80.68
5755;BME280;2902;42.130;24.732;2023-05-22T05:41:55;99181.31;;;20.97;79.71
5755;BME280;2902;42.130;24.732;2023-05-22T05:44:21;99192.66;;;20.94;78.38
5755;BME280;2902;42.130;24.732;2023-05-22T05:46:48;99188.06;;;20.95;80.11
5755;BME280;2902;42.130;24.732;2023-05-22T05:49:18;99199.69;;;21.00;78.03
5755;BME280;2902;42.130;24.732;2023-05-22T05:51:45;99200.47;;;20.86;78.63
5755;BME280;2902;42.130;24.732;2023-05-22T05:54:11;99215.28;;;20.78;79.41
5755;BME280;2902;42.130;24.732;2023-05-22T05:56:38;99193.69;;;20.68;80.64
5755;BME280;2902;42.130;24.732;2023-05-22T05:59:05;99200.16;;;20.82;81.15
5755;BME280;2902;42.130;24.732;2023-05-22T06:01:33;99198.28;;;20.83;81.86
5755;BME280;2902;42.130;24.732;2023-05-22T06:04:00;99200.75;;;20.99;80.78
5755;BME280;2902;42.130;24.732;2023-05-22T06:06:31;99200.75;;;21.14;81.63
5755;BME280;2902;42.130;24.732;2023-05-22T06:09:00;99197.75;;;21.41;82.92
5755;BME280;2902;42.130;24.732;2023-05-22T06:11:27;99216.84;;;21.89;79.50
5755;BME280;2902;42.130;24.732;2023-05-22T06:13:54;99222.66;;;22.21;76.77
5755;BME280;2902;42.130;24.732;2023-05-22T06:16:21;99226.41;;;22.35;77.00
5755;BME280;2902;42.130;24.732;2023-05-22T06:18:47;99226.81;;;22.62;76.75
5755;BME280;2902;42.130;24.732;2023-05-22T06:21:16;99238.69;;;22.66;75.52
5755;BME280;2902;42.130;24.732;2023-05-22T06:23:46;99240.31;;;22.67;74.21
5755;BME280;2902;42.130;24.732;2023-05-22T06:26:14;99237.31;;;22.69;74.28
5755;BME280;2902;42.130;24.732;2023-05-22T06:28:40;99240.34;;;22.62;72.95
5755;BME280;2902;42.130;24.732;2023-05-22T06:31:07;99248.25;;;22.49;70.92
5755;BME280;2902;42.130;24.732;2023-05-22T06:33:34;99243.97;;;22.38;70.75
5755;BME280;2902;42.130;24.732;2023-05-22T06:36:01;99239.94;;;22.30;70.31
5755;BME280;2902;42.130;24.732;2023-05-22T06:38:29;99238.06;;;22.31;70.92
5755;BME280;2902;42.130;24.732;2023-05-22T06:40:58;99251.28;;;22.47;70.02
5755;BME280;2902;42.130;24.732;2023-05-22T06:43:24;99241.88;;;22.78;71.27
5755;BME280;2902;42.130;24.732;2023-05-22T06:45:51;99253.50;;;23.22;68.17
5755;BME280;2902;42.130;24.732;2023-05-22T06:48:18;99258.09;;;23.55;63.58
5755;BME280;2902;42.130;24.732;2023-05-22T06:50:44;99258.59;;;23.86;62.11
5755;BME280;2902;42.130;24.732;2023-05-22T06:53:11;99262.50;;;24.03;60.56
5755;BME280;2902;42.130;24.732;2023-05-22T06:55:38;99254.81;;;24.34;61.38
5755;BME280;2902;42.130;24.732;2023-05-22T06:58:06;99254.91;;;24.84;58.75
5755;BME280;2902;42.130;24.732;2023-05-22T07:00:33;99260.88;;;25.56;56.04
5755;BME280;2902;42.130;24.732;2023-05-22T07:03:00;99265.72;;;26.18;50.74
5755;BME280;2902;42.130;24.732;2023-05-22T07:05:26;99276.59;;;26.94;49.67
5755;BME280;2902;42.130;24.732;2023-05-22T07:07:53;99267.66;;;27.59;47.09
5755;BME280;2902;42.130;24.732;2023-05-22T07:10:20;99257.66;;;28.07;43.73
5755;BME280;2902;42.130;24.732;2023-05-22T07:12:47;99252.53;;;28.14;41.95
5755;BME280;2902;42.130;24.732;2023-05-22T07:15:15;99237.81;;;28.32;40.84
5755;BME280;2902;42.130;24.732;2023-05-22T07:17:43;99241.44;;;28.67;44.99
5755;BME280;2902;42.130;24.732;2023-05-22T07:20:11;99244.19;;;28.67;41.40
5755;BME280;2902;42.130;24.732;2023-05-22T07:22:42;99244.50;;;28.82;40.05
5755;BME280;2902;42.130;24.732;2023-05-22T07:25:09;99226.97;;;28.92;38.96
5755;BME280;2902;42.130;24.732;2023-05-22T07:27:38;99234.84;;;29.19;38.42
5755;BME280;2902;42.130;24.732;2023-05-22T07:30:08;99242.91;;;29.07;37.09
5755;BME280;2902;42.130;24.732;2023-05-22T07:32:38;99241.13;;;28.85;38.62
5755;BME280;2902;42.130;24.732;2023-05-22T07:35:09;99229.72;;;28.75;37.89
5755;BME280;2902;42.130;24.732;2023-05-22T07:37:38;99238.38;;;28.77;39.06
5755;BME280;2902;42.130;24.732;2023-05-22T07:40:17;99234.22;;;29.05;40.02
5755;BME280;2902;42.130;24.732;2023-05-22T07:42:54;99240.16;;;29.33;37.87
5755;BME280;2902;42.130;24.732;2023-05-22T07:45:24;99242.25;;;29.44;35.99
5755;BME280;2902;42.130;24.732;2023-05-22T07:47:59;99236.25;;;29.68;35.46
5755;BME280;2902;42.130;24.732;2023-05-22T07:50:32;99238.03;;;29.64;34.77
5755;BME280;2902;42.130;24.732;2023-05-22T07:53:15;99234.97;;;29.48;32.67
5755;BME280;2902;42.130;24.732;2023-05-22T07:55:45;99234.22;;;29.31;35.88
5755;BME280;2902;42.130;24.732;2023-05-22T07:58:14;99237.72;;;29.31;34.89
5755;BME280;2902;42.130;24.732;2023-05-22T08:00:41;99222.28;;;29.35;35.32
5755;BME280;2902;42.130;24.732;2023-05-22T08:03:09;99230.44;;;29.52;34.57
5755;BME280;2902;42.130;24.732;2023-05-22T08:05:36;99236.06;;;29.64;34.68
5755;BME280;2902;42.130;24.732;2023-05-22T08:08:03;99229.66;;;29.60;33.39
5755;BME280;2902;42.130;24.732;2023-05-22T08:10:30;99237.69;;;29.48;35.17
5755;BME280;2902;42.130;24.732;2023-05-22T08:12:56;99234.97;;;29.48;34.47
5755;BME280;2902;42.130;24.732;2023-05-22T08:15:26;99223.53;;;29.46;34.91
5755;BME280;2902;42.130;24.732;2023-05-22T08:17:53;99214.56;;;28.86;36.17
5755;BME280;2902;42.130;24.732;2023-05-22T08:20:21;99236.94;;;28.88;35.05
5755;BME280;2902;42.130;24.732;2023-05-22T08:22:48;99231.63;;;28.91;34.40
5755;BME280;2902;42.130;24.732;2023-05-22T08:25:15;99237.59;;;28.93;33.26
5755;BME280;2902;42.130;24.732;2023-05-22T08:27:42;99236.00;;;29.09;33.21
5755;BME280;2902;42.130;24.732;2023-05-22T08:30:09;99231.31;;;29.27;33.52
5755;BME280;2902;42.130;24.732;2023-05-22T08:32:35;99223.91;;;29.36;33.79
5755;BME280;2902;42.130;24.732;2023-05-22T08:35:02;99230.16;;;29.45;33.39
5755;BME280;2902;42.130;24.732;2023-05-22T08:37:31;99226.47;;;29.41;34.52
5755;BME280;2902;42.130;24.732;2023-05-22T08:39:58;99216.97;;;28.70;33.83
5755;BME280;2902;42.130;24.732;2023-05-22T08:42:24;99221.03;;;29.07;34.95
5755;BME280;2902;42.130;24.732;2023-05-22T08:44:51;99228.66;;;29.56;33.76
5755;BME280;2902;42.130;24.732;2023-05-22T08:47:21;99219.09;;;29.88;35.12
5755;BME280;2902;42.130;24.732;2023-05-22T08:49:49;99212.41;;;30.06;34.35
5755;BME280;2902;42.130;24.732;2023-05-22T08:52:21;99225.91;;;30.19;32.96
5755;BME280;2902;42.130;24.732;2023-05-22T08:54:54;99222.69;;;30.17;34.41
5755;BME280;2902;42.130;24.732;2023-05-22T08:57:23;99226.34;;;30.50;34.08
5755;BME280;2902;42.130;24.732;2023-05-22T08:59:51;99215.84;;;30.52;33.49
5755;BME280;2902;42.130;24.732;2023-05-22T09:02:19;99218.88;;;30.59;35.58
5755;BME280;2902;42.130;24.732;2023-05-22T09:04:50;99217.00;;;30.51;33.74
5755;BME280;2902;42.130;24.732;2023-05-22T09:07:24;99214.84;;;30.36;32.58
5755;BME280;2902;42.130;24.732;2023-05-22T09:09:53;99207.47;;;30.28;33.13
5755;BME280;2902;42.130;24.732;2023-05-22T09:12:22;99220.59;;;30.43;32.33
5755;BME280;2902;42.130;24.732;2023-05-22T09:14:53;99213.63;;;30.75;31.55
5755;BME280;2902;42.130;24.732;2023-05-22T09:17:21;99218.34;;;30.86;32.02
5755;BME280;2902;42.130;24.732;2023-05-22T09:19:51;99214.31;;;31.25;32.84
5755;BME280;2902;42.130;24.732;2023-05-22T09:22:18;99217.75;;;31.54;32.54
5755;BME280;2902;42.130;24.732;2023-05-22T09:24:48;99214.78;;;31.59;32.00
5755;BME280;2902;42.130;24.732;2023-05-22T09:27:17;99220.63;;;31.70;32.19
5755;BME280;2902;42.130;24.732;2023-05-22T09:29:56;99216.91;;;31.86;30.93
5755;BME280;2902;42.130;24.732;2023-05-22T09:32:24;99217.59;;;31.95;30.65
5755;BME280;2902;42.130;24.732;2023-05-22T09:35:01;99211.63;;;31.81;29.82
5755;BME280;2902;42.130;24.732;2023-05-22T09:37:32;99213.78;;;31.88;29.74
5755;BME280;2902;42.130;24.732;2023-05-22T09:40:03;99207.69;;;31.58;30.31
5755;BME280;2902;42.130;24.732;2023-05-22T09:42:33;99217.88;;;31.25;30.41
5755;BME280;2902;42.130;24.732;2023-05-22T09:45:04;99202.59;;;30.54;30.83
5755;BME280;2902;42.130;24.732;2023-05-22T09:47:32;99225.50;;;30.29;31.56
5755;BME280;2902;42.130;24.732;2023-05-22T09:50:00;99205.25;;;30.42;30.59
5755;BME280;2902;42.130;24.732;2023-05-22T09:52:31;99209.75;;;30.47;31.07
5755;BME280;2902;42.130;24.732;2023-05-22T09:55:01;99198.28;;;29.87;32.93
5755;BME280;2902;42.130;24.732;2023-05-22T09:57:30;99195.63;;;29.70;33.31
5755;BME280;2902;42.130;24.732;2023-05-22T09:59:59;99190.84;;;29.67;33.78
5755;BME280;2902;42.130;24.732;2023-05-22T10:02:34;99187.47;;;29.61;33.17
5755;BME280;2902;42.130;24.732;2023-05-22T10:05:04;99197.97;;;29.88;32.28
5755;BME280;2902;42.130;24.732;2023-05-22T10:07:35;99190.03;;;30.04;31.45
5755;BME280;2902;42.130;24.732;2023-05-22T10:10:05;99194.72;;;29.95;30.67
5755;BME280;2902;42.130;24.732;2023-05-22T10:12:44;99190.44;;;29.85;31.90
5755;BME280;2902;42.130;24.732;2023-05-22T10:15:16;99179.72;;;29.63;32.78
5755;BME280;2902;42.130;24.732;2023-05-22T10:17:43;99183.63;;;29.45;32.47
5755;BME280;2902;42.130;24.732;2023-05-22T10:20:11;99182.91;;;29.10;32.09
5755;BME280;2902;42.130;24.732;2023-05-22T10:22:38;99181.13;;;29.06;31.85
5755;BME280;2902;42.130;24.732;2023-05-22T10:25:07;99176.56;;;29.27;32.25
5755;BME280;2902;42.130;24.732;2023-05-22T10:27:34;99179.31;;;29.27;31.30
5755;BME280;2902;42.130;24.732;2023-05-22T10:30:09;99180.44;;;29.26;31.62
5755;BME280;2902;42.130;24.732;2023-05-22T10:32:43;99185.59;;;29.27;32.07
5755;BME280;2902;42.130;24.732;2023-05-22T10:35:17;99178.94;;;29.46;30.88
5755;BME280;2902;42.130;24.732;2023-05-22T10:37:48;99177.16;;;29.58;30.99
5755;BME280;2902;42.130;24.732;2023-05-22T10:40:20;99183.81;;;29.86;30.95
5755;BME280;2902;42.130;24.732;2023-05-22T10:42:56;99178.56;;;29.73;30.32
5755;BME280;2902;42.130;24.732;2023-05-22T10:45:24;99183.22;;;29.72;30.45
5755;BME280;2902;42.130;24.732;2023-05-22T10:48:02;99176.03;;;29.51;30.52
5755;BME280;2902;42.130;24.732;2023-05-22T10:50:29;99160.22;;;29.56;30.80
5755;BME280;2902;42.130;24.732;2023-05-22T10:53:23;99167.47;;;29.69;31.32
5755;BME280;2902;42.130;24.732;2023-05-22T10:55:58;99162.56;;;29.83;31.14
5755;BME280;2902;42.130;24.732;2023-05-22T10:58:28;99156.88;;;29.88;30.10
5755;BME280;2902;42.130;24.732;2023-05-22T11:01:19;99150.34;;;29.72;30.61
5755;BME280;2902;42.130;24.732;2023-05-22T11:03:53;99142.72;;;29.57;31.05
5755;BME280;2902;42.130;24.732;2023-05-22T11:06:31;99150.16;;;29.31;31.16
5755;BME280;2902;42.130;24.732;2023-05-22T11:09:15;99138.22;;;29.44;30.52
5755;BME280;2902;42.130;24.732;2023-05-22T11:11:45;99123.34;;;29.54;29.42
5755;BME280;2902;42.130;24.732;2023-05-22T11:14:15;99133.75;;;29.77;30.01
5755;BME280;2902;42.130;24.732;2023-05-22T11:16:45;99140.63;;;29.83;29.82
5755;BME280;2902;42.130;24.732;2023-05-22T11:19:15;99132.00;;;29.27;28.83
5755;BME280;2902;42.130;24.732;2023-05-22T11:21:44;99133.47;;;29.70;28.96
5755;BME280;2902;42.130;24.732;2023-05-22T11:24:15;99139.63;;;29.04;29.67
5755;BME280;2902;42.130;24.732;2023-05-22T11:26:42;99130.88;;;29.19;28.92
5755;BME280;2902;42.130;24.732;2023-05-22T11:29:11;99138.94;;;29.07;27.95
5755;BME280;2902;42.130;24.732;2023-05-22T11:31:41;99133.47;;;28.90;28.82
5755;BME280;2902;42.130;24.732;2023-05-22T11:34:18;99134.44;;;28.94;29.78
5755;BME280;2902;42.130;24.732;2023-05-22T11:36:51;99127.06;;;28.86;30.28
5755;BME280;2902;42.130;24.732;2023-05-22T11:39:21;99134.66;;;28.80;30.24
5755;BME280;2902;42.130;24.732;2023-05-22T11:41:48;99148.78;;;28.82;30.24
5755;BME280;2902;42.130;24.732;2023-05-22T11:44:15;99146.06;;;28.65;30.61
5755;BME280;2902;42.130;24.732;2023-05-22T11:46:42;99171.63;;;28.44;30.49
5755;BME280;2902;42.130;24.732;2023-05-22T11:49:09;99182.06;;;27.86;36.22
5755;BME280;2902;42.130;24.732;2023-05-22T11:51:39;99172.53;;;26.56;45.21
5755;BME280;2902;42.130;24.732;2023-05-22T11:54:06;99163.50;;;25.39;49.23
5755;BME280;2902;42.130;24.732;2023-05-22T11:56:33;99168.56;;;25.32;50.73
5755;BME280;2902;42.130;24.732;2023-05-22T11:59:00;99131.22;;;25.06;51.95
5755;BME280;2902;42.130;24.732;2023-05-22T12:01:27;99174.59;;;24.41;60.65
5755;BME280;2902;42.130;24.732;2023-05-22T12:03:53;99156.91;;;23.60;61.41
5755;BME280;2902;42.130;24.732;2023-05-22T12:06:20;99164.78;;;23.56;64.74
5755;BME280;2902;42.130;24.732;2023-05-22T12:08:48;99168.66;;;23.50;61.07
5755;BME280;2902;42.130;24.732;2023-05-22T12:11:15;99165.59;;;23.28;57.82
5755;BME280;2902;42.130;24.732;2023-05-22T12:13:42;99149.22;;;22.81;59.22
5755;BME280;2902;42.130;24.732;2023-05-22T12:16:19;99154.84;;;22.56;58.72
5755;BME280;2902;42.130;24.732;2023-05-22T12:18:51;99143.56;;;22.39;61.31
5755;BME280;2902;42.130;24.732;2023-05-22T12:21:18;99149.47;;;22.41;62.00
5755;BME280;2902;42.130;24.732;2023-05-22T12:23:49;99154.28;;;22.54;65.12
5755;BME280;2902;42.130;24.732;2023-05-22T12:26:16;99150.44;;;22.65;64.87
5755;BME280;2902;42.130;24.732;2023-05-22T12:28:43;99147.28;;;22.87;64.18
5755;BME280;2902;42.130;24.732;2023-05-22T12:31:10;99144.56;;;23.15;68.29
5755;BME280;2902;42.130;24.732;2023-05-22T12:33:45;99138.75;;;23.32;70.15
5755;BME280;2902;42.130;24.732;2023-05-22T12:36:11;99135.13;;;23.41;71.12
5755;BME280;2902;42.130;24.732;2023-05-22T12:38:39;99133.91;;;23.52;72.44
5755;BME280;2902;42.130;24.732;2023-05-22T12:41:08;99127.84;;;23.60;72.28
5755;BME280;2902;42.130;24.732;2023-05-22T12:43:36;99124.50;;;23.68;71.87
5755;BME280;2902;42.130;24.732;2023-05-22T12:46:04;99126.66;;;23.71;70.86
5755;BME280;2902;42.130;24.732;2023-05-22T12:48:37;99126.06;;;23.74;69.93
5755;BME280;2902;42.130;24.732;2023-05-22T12:51:06;99128.72;;;23.79;69.99
5755;BME280;2902;42.130;24.732;2023-05-22T12:53:33;99131.34;;;23.84;69.52
5755;BME280;2902;42.130;24.732;2023-05-22T12:56:16;99127.31;;;23.82;66.53
5755;BME280;2902;42.130;24.732;2023-05-22T12:58:43;99135.47;;;23.82;65.32
5755;BME280;2902;42.130;24.732;2023-05-22T13:01:11;99140.97;;;23.77;61.87
5755;BME280;2902;42.130;24.732;2023-05-22T13:03:44;99143.56;;;23.63;59.67
5755;BME280;2902;42.130;24.732;2023-05-22T13:06:13;99134.59;;;23.39;61.01
5755;BME280;2902;42.130;24.732;2023-05-22T13:08:40;99127.50;;;23.43;63.93
5755;BME280;2902;42.130;24.732;2023-05-22T13:11:09;99128.38;;;23.62;65.75
5755;BME280;2902;42.130;24.732;2023-05-22T13:13:39;99118.22;;;23.73;65.15
5755;BME280;2902;42.130;24.732;2023-05-22T13:16:06;99111.50;;;23.89;66.33
5755;BME280;2902;42.130;24.732;2023-05-22T13:18:40;99121.88;;;24.05;65.70
5755;BME280;2902;42.130;24.732;2023-05-22T13:21:07;99116.31;;;24.15;62.74